Airport View

Enter AWOS ICAO identifier for current METAR.

ex. KFNL

KAEJ 171155Z AUTO 32012G20KT 10SM CLR 01/M08 A3022 RMK AO2 T00121078 10025 21006

17 Nov 2019 11:59

Frequency: 132.925

Phone: 719-395-2599

Other Area AWOS: K7BM - KANK - KMYP - KLXV

TAF AMD KASE 170605Z 1706/1806 17005KT P6SM OVC060 FM170900 21005KT P6SM FEW120 FEW250 FM171800 35005KT P6SM FEW120 FEW250 FM172300 30008KT P6SM FEW100 FEW250 FM180200 21006KT P6SM FEW100 FEW200